Hafnia Adamello — 9V3229 — position and weather

sailwx.info

Track history (hours):
 
Tides and Currents Weather Stations Pressure Air Temp Water Temp Dewpoint Dewpoint Depression Visibility Wind Speed Wind Dir Waves Ship Positions

Hafnia Adamello

Last reported at 2018-Jun-23 03:52 UTC. Time now 2018-Jun-24 03:41 UTC.
Position N 40°56' E 001°44'.

Length 181 m; draft 6.7 m.

Type: Tanker. MMSI: 565975000.

Date/timePositionNaut miles runAvg speedWind from/ knotsBaromVisibWave heightAir tempDewpointWater temp
2018-Jun-23 03:52N 40°56' E 001°44'511.9
2018-Jun-23 03:26N 40°57' E 001°38'512.0
2018-Jun-23 02:59N 40°59' E 001°31'16 0.4
2018-Jun-21 15:16N 41°05' E 001°12'10 6.7
2018-Jun-21 13:46N 40°55' E 001°12'412.5
2018-Jun-21 13:25N 40°51' E 001°11'712.3
2018-Jun-21 12:50N 40°44' E 001°11'412.2
2018-Jun-21 12:30N 40°39' E 001°10'612.1
2018-Jun-21 12:00N 40°33' E 001°10'11512.3
2018-Jun-21 02:37N 38°43' E 000°28'412.5
2018-Jun-21 02:16N 38°39' E 000°25'312.2
2018-Jun-21 01:59N 38°36' E 000°23'3212.2
2018-Jun-20 23:22N 38°09' E 000°01'912.4
2018-Jun-20 22:39N 38°02' W 000°06'1412.3
2018-Jun-20 21:32N 37°51' W 000°16'112.3
2018-Jun-20 21:28N 37°50' W 000°16'612.3
2018-Jun-20 20:59N 37°45' W 000°21'612.3
2018-Jun-20 20:31N 37°40' W 000°25'612.4
2018-Jun-20 20:00N 37°35' W 000°29'612.5
2018-Jun-20 19:29N 37°30' W 000°35'612.0
2018-Jun-20 19:00N 37°29' W 000°42'612.0
2018-Jun-20 18:30N 37°28' W 000°49'5 9.3
2018-Jun-20 18:00N 37°29' W 000°55'  
2018-Jun-18 12:56N 37°33' W 000°60'5 9.8
2018-Jun-18 12:25N 37°30' W 000°54'612.8
2018-Jun-18 11:57N 37°31' W 000°47'712.6
2018-Jun-18 11:25N 37°31' W 000°38'612.6
2018-Jun-18 10:58N 37°35' W 000°33'612.8
2018-Jun-18 10:30N 37°40' W 000°29'612.6
2018-Jun-18 10:00N 37°46' W 000°24'1312.5
2018-Jun-18 08:57N 37°57' W 000°15'612.4
2018-Jun-18 08:26N 38°02' W 000°11'612.5
2018-Jun-18 07:57N 38°07' W 000°06'512.5
2018-Jun-18 07:30N 38°11' W 000°02'1112.4
2018-Jun-18 06:38N 38°21' E 000°05'212.4
2018-Jun-18 06:30N 38°22' E 000°06'612.4
2018-Jun-18 06:00N 38°27' E 000°10'812.5
2018-Jun-18 05:23N 38°34' E 000°15'512.9
2018-Jun-18 05:00N 38°38' E 000°19'1612.5
2018-Jun-18 03:44N 38°51' E 000°31'512.4
2018-Jun-18 03:21N 38°54' E 000°35'14112.3
2018-Jun-17 15:53N 40°45' E 002°29'18212.5
2018-Jun-17 01:19N 43°09' E 004°58'411.4
2018-Jun-17 00:59N 43°12' E 005°01'612.4
2018-Jun-17 00:30N 43°18' E 004°59'510.3
2018-Jun-17 00:00N 43°23' E 004°59'1 1.9
2018-Jun-16 23:25N 43°24' E 004°60'0 0.0
2018-Jun-16 22:55N 43°24' E 004°60'0 0.0
2018-Jun-16 22:28N 43°24' E 004°60'0 0.0
2018-Jun-16 21:58N 43°24' E 004°60'0 0.0
2018-Jun-16 21:28N 43°24' E 004°60'0 0.0
2018-Jun-16 20:58N 43°24' E 004°60'0 0.0
2018-Jun-16 20:28N 43°24' E 004°60'0 0.0
2018-Jun-16 19:58N 43°24' E 004°60'0 0.0
2018-Jun-16 19:28N 43°24' E 004°60'0 0.0
2018-Jun-16 18:58N 43°24' E 004°60'0 0.0
2018-Jun-16 18:25N 43°24' E 004°60'0 0.0
2018-Jun-16 17:58N 43°24' E 004°60'0 0.0
2018-Jun-16 17:28N 43°24' E 004°60'0 0.0
2018-Jun-16 16:58N 43°24' E 004°60'0 0.0
2018-Jun-16 16:28N 43°24' E 004°60'0 0.0
2018-Jun-16 15:55N 43°24' E 004°60'0 0.0
2018-Jun-16 15:28N 43°24' E 004°60'0 0.0
2018-Jun-16 14:52N 43°24' E 004°60'0 0.0
2018-Jun-16 14:25N 43°24' E 004°60'0 0.0
2018-Jun-16 13:55N 43°24' E 004°60'0 0.0
2018-Jun-16 13:25N 43°24' E 004°60'0 0.0
2018-Jun-16 12:58N 43°24' E 004°60'0 0.0
2018-Jun-16 12:28N 43°24' E 004°60'0 0.0
2018-Jun-16 11:58N 43°24' E 004°60'0 0.0
2018-Jun-16 11:28N 43°24' E 004°60'0 0.0
2018-Jun-16 10:55N 43°24' E 004°60'0 0.0
2018-Jun-16 10:25N 43°24' E 004°60'0 0.0
2018-Jun-16 09:52N 43°24' E 004°60'0 0.0
2018-Jun-16 09:28N 43°24' E 004°60'0 0.0
2018-Jun-16 08:58N 43°24' E 004°60'0 0.0
2018-Jun-16 08:28N 43°24' E 004°60'0 0.0
2018-Jun-16 07:55N 43°24' E 004°60'0 0.0
2018-Jun-16 07:28N 43°24' E 004°60'0 0.0
2018-Jun-16 06:58N 43°24' E 004°60'0 0.0
2018-Jun-16 06:28N 43°24' E 004°60'0 0.0
2018-Jun-16 05:55N 43°24' E 004°60'0 0.0
2018-Jun-16 05:28N 43°24' E 004°60'0 0.0
2018-Jun-16 04:58N 43°24' E 004°60'0 0.0
2018-Jun-16 04:25N 43°24' E 004°60'0 0.0
2018-Jun-16 03:58N 43°24' E 004°60'0 0.0
2018-Jun-16 03:28N 43°24' E 004°60'0 0.0
2018-Jun-16 02:58N 43°24' E 004°60'0 0.0
2018-Jun-16 02:28N 43°24' E 004°60'0 0.0
2018-Jun-16 01:58N 43°24' E 004°60'0 0.0
2018-Jun-16 01:28N 43°24' E 004°60'0 0.0
2018-Jun-16 00:58N 43°24' E 004°60'0 0.0
2018-Jun-16 00:28N 43°24' E 004°60'0 0.0
2018-Jun-15 23:55N 43°24' E 004°60'0 0.0
2018-Jun-15 23:28N 43°24' E 004°60'0 0.0
2018-Jun-15 22:58N 43°24' E 004°60'0 0.0
2018-Jun-15 22:25N 43°24' E 004°60'0 0.0
2018-Jun-15 21:55N 43°24' E 004°60'0 0.0
2018-Jun-15 21:25N 43°24' E 004°60'0 0.0
2018-Jun-15 20:55N 43°24' E 004°60'0 0.0
2018-Jun-15 20:25N 43°24' E 004°60'0 0.0
2018-Jun-15 19:49N 43°24' E 004°60'0 0.0
2018-Jun-15 19:28N 43°24' E 004°60'0 0.0
2018-Jun-15 18:58N 43°24' E 004°60'0 0.0
2018-Jun-15 18:25N 43°24' E 004°60'0 0.0
2018-Jun-15 17:58N 43°24' E 004°60'0 0.0
2018-Jun-15 17:28N 43°24' E 004°60'0 0.0
2018-Jun-15 16:58N 43°24' E 004°60'0 0.0
2018-Jun-15 16:28N 43°24' E 004°60'0 0.0
2018-Jun-15 15:58N 43°24' E 004°60'0 0.0
2018-Jun-15 15:28N 43°24' E 004°60'0 0.0
2018-Jun-15 14:55N 43°24' E 004°60'0 0.0
2018-Jun-15 14:28N 43°24' E 004°60'0 0.0
2018-Jun-15 13:58N 43°24' E 004°60'0 0.0
2018-Jun-15 13:28N 43°24' E 004°60'0 0.0
2018-Jun-15 12:58N 43°24' E 004°60'0 0.0
2018-Jun-15 12:25N 43°24' E 004°60'0 0.0
2018-Jun-15 11:58N 43°24' E 004°60'0 0.0
2018-Jun-15 11:22N 43°24' E 004°60'0 0.0
2018-Jun-15 10:58N 43°24' E 004°60'0 0.0
2018-Jun-15 10:28N 43°24' E 004°60'0 0.0
2018-Jun-15 09:58N 43°24' E 004°60'0 0.0
2018-Jun-15 09:25N 43°24' E 004°60'0 0.0
2018-Jun-15 08:58N 43°24' E 004°60'0 0.0
2018-Jun-15 08:28N 43°24' E 004°60'0 0.0
2018-Jun-15 07:58N 43°24' E 004°60'0 0.0
2018-Jun-15 07:28N 43°24' E 004°60'0 0.0
2018-Jun-15 06:58N 43°24' E 004°60'0 0.0
2018-Jun-15 06:10N 43°24' E 004°60'0 0.0
2018-Jun-15 05:58N 43°24' E 004°60'0 0.0
2018-Jun-15 05:28N 43°24' E 004°60'0 0.0
2018-Jun-15 04:58N 43°24' E 004°60'0 0.0
2018-Jun-15 04:22N 43°24' E 004°60'0 0.0
2018-Jun-15 03:58N 43°24' E 004°60'0 0.0
2018-Jun-15 03:28N 43°24' E 004°60'0 0.0
2018-Jun-15 02:58N 43°24' E 004°60'0 0.0
2018-Jun-15 02:25N 43°24' E 004°60'0 0.0
2018-Jun-15 01:58N 43°24' E 004°60'0 0.0
2018-Jun-15 01:28N 43°24' E 004°60'0 0.0
2018-Jun-15 00:58N 43°24' E 004°60'0 0.0
2018-Jun-15 00:28N 43°24' E 004°60'0 0.0
2018-Jun-14 23:58N 43°24' E 004°60'0 0.0
2018-Jun-14 23:25N 43°24' E 004°60'0 0.0
2018-Jun-14 22:49N 43°24' E 004°60'0 0.0
2018-Jun-14 22:28N 43°24' E 004°60'0 0.0
2018-Jun-14 21:58N 43°24' E 004°60'0 0.0
2018-Jun-14 21:28N 43°24' E 004°60'0 0.0
2018-Jun-14 20:55N 43°24' E 004°60'0 0.0
2018-Jun-14 20:25N 43°24' E 004°60'0 0.0
2018-Jun-14 19:55N 43°24' E 004°60'0 0.0
2018-Jun-14 19:28N 43°24' E 004°60'0 0.0
2018-Jun-14 18:58N 43°24' E 004°60'0 0.0
2018-Jun-14 18:28N 43°24' E 004°60'0 0.0
2018-Jun-14 17:58N 43°24' E 004°60'0 0.0
2018-Jun-14 17:28N 43°24' E 004°60'0 0.0
2018-Jun-14 16:58N 43°24' E 004°60'0 0.0
2018-Jun-14 16:28N 43°24' E 004°60'0 0.0
2018-Jun-14 15:58N 43°24' E 004°60'0 0.0
2018-Jun-14 15:28N 43°24' E 004°60'0 0.0
2018-Jun-14 14:55N 43°24' E 004°60'0 0.0
2018-Jun-14 14:28N 43°24' E 004°60'0 0.0
2018-Jun-14 13:55N 43°24' E 004°60'0 0.0
2018-Jun-14 13:28N 43°24' E 004°60'0 0.0
2018-Jun-14 12:58N 43°24' E 004°60'0 0.0
2018-Jun-14 12:28N 43°24' E 004°60'0 0.1
2018-Jun-14 12:00N 43°24' E 004°60'2 3.2
2018-Jun-14 11:30N 43°23' E 004°58'2 3.3
2018-Jun-14 10:58N 43°24' E 004°56'0 0.2
2018-Jun-14 10:28N 43°24' E 004°56'0 0.0
2018-Jun-14 09:58N 43°24' E 004°56'0 0.0
2018-Jun-14 09:28N 43°24' E 004°56'0 0.0
2018-Jun-14 08:58N 43°24' E 004°56'0 0.0
2018-Jun-14 08:28N 43°24' E 004°56'0 0.0
2018-Jun-14 07:58N 43°24' E 004°56'0 0.0
2018-Jun-14 07:28N 43°24' E 004°56'0 0.0
2018-Jun-14 06:52N 43°24' E 004°56'0 0.0
2018-Jun-14 06:28N 43°24' E 004°56'0 0.0
2018-Jun-14 05:58N 43°24' E 004°56'0 0.0
2018-Jun-14 05:25N 43°24' E 004°56'0 0.0
2018-Jun-14 04:58N 43°24' E 004°56'0 0.0
2018-Jun-14 04:28N 43°24' E 004°56'0 0.0
2018-Jun-14 03:58N 43°24' E 004°56'0 0.0
2018-Jun-14 03:28N 43°24' E 004°56'0 0.0
2018-Jun-14 02:55N 43°24' E 004°56'0 0.0
2018-Jun-14 02:28N 43°24' E 004°56'0 0.0
2018-Jun-14 01:58N 43°24' E 004°56'0 0.0
2018-Jun-14 01:28N 43°24' E 004°56'0 0.0
2018-Jun-14 00:58N 43°24' E 004°56'0 0.0
2018-Jun-14 00:28N 43°24' E 004°56'0 0.0
2018-Jun-13 23:58N 43°24' E 004°56'0 0.0
2018-Jun-13 23:22N 43°24' E 004°56'0 0.0
2018-Jun-13 22:58N 43°24' E 004°56'0 0.0
2018-Jun-13 22:28N 43°24' E 004°56'0 0.0
2018-Jun-13 21:58N 43°24' E 004°56'0 0.0
2018-Jun-13 21:28N 43°24' E 004°56'0 0.0
2018-Jun-13 20:58N 43°24' E 004°56'0 0.0
2018-Jun-13 20:28N 43°24' E 004°56'0 0.0
2018-Jun-13 19:58N 43°24' E 004°56'0 0.3
2018-Jun-13 19:28N 43°24' E 004°56'2 4.2
2018-Jun-13 19:00N 43°23' E 004°58'4 7.6
2018-Jun-13 18:30N 43°19' E 004°59'  
Track history (hours):
 
Tides and Currents Weather Stations Pressure Air Temp Water Temp Dewpoint Dewpoint Depression Visibility Wind Speed Wind Dir Waves Ship Positions

Hafnia Adamello

Last reported at 2018-Jun-23 03:52 UTC. Time now 2018-Jun-24 03:41 UTC.
Position N 40°56' E 001°44'.

Length 181 m; draft 6.7 m.

Type: Tanker. MMSI: 565975000.

Date/timePositionNaut miles runAvg speedWind from/ knotsBaromVisibWave heightAir tempDewpointWater temp
2018-Jun-23 03:52N 40°56' E 001°44'511.9
2018-Jun-23 03:26N 40°57' E 001°38'512.0
2018-Jun-23 02:59N 40°59' E 001°31'16 0.4
2018-Jun-21 15:16N 41°05' E 001°12'10 6.7
2018-Jun-21 13:46N 40°55' E 001°12'412.5
2018-Jun-21 13:25N 40°51' E 001°11'712.3
2018-Jun-21 12:50N 40°44' E 001°11'412.2
2018-Jun-21 12:30N 40°39' E 001°10'612.1
2018-Jun-21 12:00N 40°33' E 001°10'11512.3
2018-Jun-21 02:37N 38°43' E 000°28'412.5
2018-Jun-21 02:16N 38°39' E 000°25'312.2
2018-Jun-21 01:59N 38°36' E 000°23'3212.2
2018-Jun-20 23:22N 38°09' E 000°01'912.4
2018-Jun-20 22:39N 38°02' W 000°06'1412.3
2018-Jun-20 21:32N 37°51' W 000°16'112.3
2018-Jun-20 21:28N 37°50' W 000°16'612.3
2018-Jun-20 20:59N 37°45' W 000°21'612.3
2018-Jun-20 20:31N 37°40' W 000°25'612.4
2018-Jun-20 20:00N 37°35' W 000°29'612.5
2018-Jun-20 19:29N 37°30' W 000°35'612.0
2018-Jun-20 19:00N 37°29' W 000°42'612.0
2018-Jun-20 18:30N 37°28' W 000°49'5 9.3
2018-Jun-20 18:00N 37°29' W 000°55'  
2018-Jun-18 12:56N 37°33' W 000°60'5 9.8
2018-Jun-18 12:25N 37°30' W 000°54'612.8
2018-Jun-18 11:57N 37°31' W 000°47'712.6
2018-Jun-18 11:25N 37°31' W 000°38'612.6
2018-Jun-18 10:58N 37°35' W 000°33'612.8
2018-Jun-18 10:30N 37°40' W 000°29'612.6
2018-Jun-18 10:00N 37°46' W 000°24'1312.5
2018-Jun-18 08:57N 37°57' W 000°15'612.4
2018-Jun-18 08:26N 38°02' W 000°11'612.5
2018-Jun-18 07:57N 38°07' W 000°06'512.5
2018-Jun-18 07:30N 38°11' W 000°02'1112.4
2018-Jun-18 06:38N 38°21' E 000°05'212.4
2018-Jun-18 06:30N 38°22' E 000°06'612.4
2018-Jun-18 06:00N 38°27' E 000°10'812.5
2018-Jun-18 05:23N 38°34' E 000°15'512.9
2018-Jun-18 05:00N 38°38' E 000°19'1612.5
2018-Jun-18 03:44N 38°51' E 000°31'512.4
2018-Jun-18 03:21N 38°54' E 000°35'14112.3
2018-Jun-17 15:53N 40°45' E 002°29'18212.5
2018-Jun-17 01:19N 43°09' E 004°58'411.4
2018-Jun-17 00:59N 43°12' E 005°01'612.4
2018-Jun-17 00:30N 43°18' E 004°59'510.3
2018-Jun-17 00:00N 43°23' E 004°59'1 1.9
2018-Jun-16 23:25N 43°24' E 004°60'0 0.0
2018-Jun-16 22:55N 43°24' E 004°60'0 0.0
2018-Jun-16 22:28N 43°24' E 004°60'0 0.0
2018-Jun-16 21:58N 43°24' E 004°60'0 0.0
2018-Jun-16 21:28N 43°24' E 004°60'0 0.0
2018-Jun-16 20:58N 43°24' E 004°60'0 0.0
2018-Jun-16 20:28N 43°24' E 004°60'0 0.0
2018-Jun-16 19:58N 43°24' E 004°60'0 0.0
2018-Jun-16 19:28N 43°24' E 004°60'0 0.0
2018-Jun-16 18:58N 43°24' E 004°60'0 0.0
2018-Jun-16 18:25N 43°24' E 004°60'0 0.0
2018-Jun-16 17:58N 43°24' E 004°60'0 0.0
2018-Jun-16 17:28N 43°24' E 004°60'0 0.0
2018-Jun-16 16:58N 43°24' E 004°60'0 0.0
2018-Jun-16 16:28N 43°24' E 004°60'0 0.0
2018-Jun-16 15:55N 43°24' E 004°60'0 0.0
2018-Jun-16 15:28N 43°24' E 004°60'0 0.0
2018-Jun-16 14:52N 43°24' E 004°60'0 0.0
2018-Jun-16 14:25N 43°24' E 004°60'0 0.0
2018-Jun-16 13:55N 43°24' E 004°60'0 0.0
2018-Jun-16 13:25N 43°24' E 004°60'0 0.0
2018-Jun-16 12:58N 43°24' E 004°60'0 0.0
2018-Jun-16 12:28N 43°24' E 004°60'0 0.0
2018-Jun-16 11:58N 43°24' E 004°60'0 0.0
2018-Jun-16 11:28N 43°24' E 004°60'0 0.0
2018-Jun-16 10:55N 43°24' E 004°60'0 0.0
2018-Jun-16 10:25N 43°24' E 004°60'0 0.0
2018-Jun-16 09:52N 43°24' E 004°60'0 0.0
2018-Jun-16 09:28N 43°24' E 004°60'0 0.0
2018-Jun-16 08:58N 43°24' E 004°60'0 0.0
2018-Jun-16 08:28N 43°24' E 004°60'0 0.0
2018-Jun-16 07:55N 43°24' E 004°60'0 0.0
2018-Jun-16 07:28N 43°24' E 004°60'0 0.0
2018-Jun-16 06:58N 43°24' E 004°60'0 0.0
2018-Jun-16 06:28N 43°24' E 004°60'0 0.0
2018-Jun-16 05:55N 43°24' E 004°60'0 0.0
2018-Jun-16 05:28N 43°24' E 004°60'0 0.0
2018-Jun-16 04:58N 43°24' E 004°60'0 0.0
2018-Jun-16 04:25N 43°24' E 004°60'0 0.0
2018-Jun-16 03:58N 43°24' E 004°60'0 0.0
2018-Jun-16 03:28N 43°24' E 004°60'0 0.0
2018-Jun-16 02:58N 43°24' E 004°60'0 0.0
2018-Jun-16 02:28N 43°24' E 004°60'0 0.0
2018-Jun-16 01:58N 43°24' E 004°60'0 0.0
2018-Jun-16 01:28N 43°24' E 004°60'0 0.0
2018-Jun-16 00:58N 43°24' E 004°60'0 0.0
2018-Jun-16 00:28N 43°24' E 004°60'0 0.0
2018-Jun-15 23:55N 43°24' E 004°60'0 0.0
2018-Jun-15 23:28N 43°24' E 004°60'0 0.0
2018-Jun-15 22:58N 43°24' E 004°60'0 0.0
2018-Jun-15 22:25N 43°24' E 004°60'0 0.0
2018-Jun-15 21:55N 43°24' E 004°60'0 0.0
2018-Jun-15 21:25N 43°24' E 004°60'0 0.0
2018-Jun-15 20:55N 43°24' E 004°60'0 0.0
2018-Jun-15 20:25N 43°24' E 004°60'0 0.0
2018-Jun-15 19:49N 43°24' E 004°60'0 0.0
2018-Jun-15 19:28N 43°24' E 004°60'0 0.0
2018-Jun-15 18:58N 43°24' E 004°60'0 0.0
2018-Jun-15 18:25N 43°24' E 004°60'0 0.0
2018-Jun-15 17:58N 43°24' E 004°60'0 0.0
2018-Jun-15 17:28N 43°24' E 004°60'0 0.0
2018-Jun-15 16:58N 43°24' E 004°60'0 0.0
2018-Jun-15 16:28N 43°24' E 004°60'0 0.0
2018-Jun-15 15:58N 43°24' E 004°60'0 0.0
2018-Jun-15 15:28N 43°24' E 004°60'0 0.0
2018-Jun-15 14:55N 43°24' E 004°60'0 0.0
2018-Jun-15 14:28N 43°24' E 004°60'0 0.0
2018-Jun-15 13:58N 43°24' E 004°60'0 0.0
2018-Jun-15 13:28N 43°24' E 004°60'0 0.0
2018-Jun-15 12:58N 43°24' E 004°60'0 0.0
2018-Jun-15 12:25N 43°24' E 004°60'0 0.0
2018-Jun-15 11:58N 43°24' E 004°60'0 0.0
2018-Jun-15 11:22N 43°24' E 004°60'0 0.0
2018-Jun-15 10:58N 43°24' E 004°60'0 0.0
2018-Jun-15 10:28N 43°24' E 004°60'0 0.0
2018-Jun-15 09:58N 43°24' E 004°60'0 0.0
2018-Jun-15 09:25N 43°24' E 004°60'0 0.0
2018-Jun-15 08:58N 43°24' E 004°60'0 0.0
2018-Jun-15 08:28N 43°24' E 004°60'0 0.0
2018-Jun-15 07:58N 43°24' E 004°60'0 0.0
2018-Jun-15 07:28N 43°24' E 004°60'0 0.0
2018-Jun-15 06:58N 43°24' E 004°60'0 0.0
2018-Jun-15 06:10N 43°24' E 004°60'0 0.0
2018-Jun-15 05:58N 43°24' E 004°60'0 0.0
2018-Jun-15 05:28N 43°24' E 004°60'0 0.0
2018-Jun-15 04:58N 43°24' E 004°60'0 0.0
2018-Jun-15 04:22N 43°24' E 004°60'0 0.0
2018-Jun-15 03:58N 43°24' E 004°60'0 0.0
2018-Jun-15 03:28N 43°24' E 004°60'0 0.0
2018-Jun-15 02:58N 43°24' E 004°60'0 0.0
2018-Jun-15 02:25N 43°24' E 004°60'0 0.0
2018-Jun-15 01:58N 43°24' E 004°60'0 0.0
2018-Jun-15 01:28N 43°24' E 004°60'0 0.0
2018-Jun-15 00:58N 43°24' E 004°60'0 0.0
2018-Jun-15 00:28N 43°24' E 004°60'0 0.0
2018-Jun-14 23:58N 43°24' E 004°60'0 0.0
2018-Jun-14 23:25N 43°24' E 004°60'0 0.0
2018-Jun-14 22:49N 43°24' E 004°60'0 0.0
2018-Jun-14 22:28N 43°24' E 004°60'0 0.0
2018-Jun-14 21:58N 43°24' E 004°60'0 0.0
2018-Jun-14 21:28N 43°24' E 004°60'0 0.0
2018-Jun-14 20:55N 43°24' E 004°60'0 0.0
2018-Jun-14 20:25N 43°24' E 004°60'0 0.0
2018-Jun-14 19:55N 43°24' E 004°60'0 0.0
2018-Jun-14 19:28N 43°24' E 004°60'0 0.0
2018-Jun-14 18:58N 43°24' E 004°60'0 0.0
2018-Jun-14 18:28N 43°24' E 004°60'0 0.0
2018-Jun-14 17:58N 43°24' E 004°60'0 0.0
2018-Jun-14 17:28N 43°24' E 004°60'0 0.0
2018-Jun-14 16:58N 43°24' E 004°60'0 0.0
2018-Jun-14 16:28N 43°24' E 004°60'0 0.0
2018-Jun-14 15:58N 43°24' E 004°60'0 0.0
2018-Jun-14 15:28N 43°24' E 004°60'0 0.0
2018-Jun-14 14:55N 43°24' E 004°60'0 0.0
2018-Jun-14 14:28N 43°24' E 004°60'0 0.0
2018-Jun-14 13:55N 43°24' E 004°60'0 0.0
2018-Jun-14 13:28N 43°24' E 004°60'0 0.0
2018-Jun-14 12:58N 43°24' E 004°60'0 0.0
2018-Jun-14 12:28N 43°24' E 004°60'0 0.1
2018-Jun-14 12:00N 43°24' E 004°60'2 3.2
2018-Jun-14 11:30N 43°23' E 004°58'2 3.3
2018-Jun-14 10:58N 43°24' E 004°56'0 0.2
2018-Jun-14 10:28N 43°24' E 004°56'0 0.0
2018-Jun-14 09:58N 43°24' E 004°56'0 0.0
2018-Jun-14 09:28N 43°24' E 004°56'0 0.0
2018-Jun-14 08:58N 43°24' E 004°56'0 0.0
2018-Jun-14 08:28N 43°24' E 004°56'0 0.0
2018-Jun-14 07:58N 43°24' E 004°56'0 0.0
2018-Jun-14 07:28N 43°24' E 004°56'0 0.0
2018-Jun-14 06:52N 43°24' E 004°56'0 0.0
2018-Jun-14 06:28N 43°24' E 004°56'0 0.0
2018-Jun-14 05:58N 43°24' E 004°56'0 0.0
2018-Jun-14 05:25N 43°24' E 004°56'0 0.0
2018-Jun-14 04:58N 43°24' E 004°56'0 0.0
2018-Jun-14 04:28N 43°24' E 004°56'0 0.0
2018-Jun-14 03:58N 43°24' E 004°56'0 0.0
2018-Jun-14 03:28N 43°24' E 004°56'0 0.0
2018-Jun-14 02:55N 43°24' E 004°56'0 0.0
2018-Jun-14 02:28N 43°24' E 004°56'0 0.0
2018-Jun-14 01:58N 43°24' E 004°56'0 0.0
2018-Jun-14 01:28N 43°24' E 004°56'0 0.0
2018-Jun-14 00:58N 43°24' E 004°56'0 0.0
2018-Jun-14 00:28N 43°24' E 004°56'0 0.0
2018-Jun-13 23:58N 43°24' E 004°56'0 0.0
2018-Jun-13 23:22N 43°24' E 004°56'0 0.0
2018-Jun-13 22:58N 43°24' E 004°56'0 0.0
2018-Jun-13 22:28N 43°24' E 004°56'0 0.0
2018-Jun-13 21:58N 43°24' E 004°56'0 0.0
2018-Jun-13 21:28N 43°24' E 004°56'0 0.0
2018-Jun-13 20:58N 43°24' E 004°56'0 0.0
2018-Jun-13 20:28N 43°24' E 004°56'0 0.0
2018-Jun-13 19:58N 43°24' E 004°56'0 0.3
2018-Jun-13 19:28N 43°24' E 004°56'2 4.2
2018-Jun-13 19:00N 43°23' E 004°58'4 7.6
2018-Jun-13 18:30N 43°19' E 004°59'  

Dump ship's entire track history